Time;durP1;ratioP1;P1;durP2;ratioP2;P2;SDS_P1;SDS_P2;PMS_P1;PMS_P2;Temp;Humidity;BMP_temperature;BMP_pressure;BME280_temperature;BME280_humidity;BME280_pressure;Samples;Min_cycle;Max_cycle;Signal;HPM_P1;HPM_P2
2022/10/05 00:02:00;;;;;;;;;;;9.90;99.90;;;;;;5074156;28;19908;-64
2022/10/05 00:04:27;;;;;;;;;;;9.90;99.90;;;;;;5074147;28;19916;-65
2022/10/05 00:06:59;;;;;;;;;;;10.00;99.90;;;;;;5074107;28;20003;-65
2022/10/05 00:09:29;;;;;;;;;;;9.90;99.90;;;;;;5073758;28;20394;-65
2022/10/05 00:11:54;;;;;;;;;;;9.90;99.90;;;;;;5073821;28;19931;-64
2022/10/05 00:14:26;;;;;;;;;;;9.90;99.90;;;;;;5073750;28;19909;-64
2022/10/05 00:16:52;;;;;;;;;;;9.90;99.90;;;;;;5055749;28;19912;-65
2022/10/05 00:19:20;;;;;;;;;;;9.90;99.90;;;;;;5073959;28;19915;-64
2022/10/05 00:21:45;;;;;;;;;;;9.80;99.90;;;;;;5073969;28;20385;-64
2022/10/05 00:24:11;;;;;;;;;;;9.80;99.90;;;;;;5073674;28;19920;-64
2022/10/05 00:26:37;;;;;;;;;;;9.80;99.90;;;;;;5073894;28;19908;-65
2022/10/05 00:29:11;;;;;;;;;;;9.90;99.90;;;;;;5073557;28;20003;-64
2022/10/05 00:31:37;;;;;;;;;;;9.90;99.90;;;;;;5073540;28;20397;-64
2022/10/05 00:34:02;;;;;;;;;;;9.90;99.90;;;;;;5073478;28;19909;-65
2022/10/05 00:36:28;;;;;;;;;;;9.90;99.90;;;;;;5073506;28;20494;-65
2022/10/05 00:38:53;;;;;;;;;;;9.90;99.90;;;;;;5073286;28;19921;-64
2022/10/05 00:41:21;;;;;;;;;;;9.90;99.90;;;;;;5073483;28;20046;-65
2022/10/05 00:44:07;;;;;;;;;;;10.00;99.90;;;;;;5073432;28;19916;-65
2022/10/05 00:46:45;;;;;;;;;;;10.00;99.90;;;;;;5073329;28;19916;-65
2022/10/05 00:49:30;;;;;;;;;;;10.10;99.90;;;;;;5073408;28;19909;-65
2022/10/05 00:52:02;;;;;;;;;;;10.10;99.90;;;;;;5073226;28;19908;-65
2022/10/05 00:54:36;;;;;;;;;;;10.30;99.90;;;;;;5073381;28;19916;-65
2022/10/05 00:57:21;;;;;;;;;;;10.30;99.90;;;;;;5073561;28;20370;-65
2022/10/05 00:59:55;;;;;;;;;;;10.50;99.90;;;;;;5073312;28;20290;-65
2022/10/05 01:02:25;;;;;;;;;;;10.50;99.90;;;;;;5073303;28;19908;-65
2022/10/05 01:04:55;;;;;;;;;;;10.60;99.90;;;;;;5073241;28;19909;-64
2022/10/05 01:07:37;;;;;;;;;;;10.70;99.90;;;;;;5073226;28;19912;-65
2022/10/05 01:10:14;;;;;;;;;;;10.70;99.90;;;;;;5073196;28;19912;-65
2022/10/05 01:12:47;;;;;;;;;;;10.80;99.90;;;;;;5073428;28;19908;-65
2022/10/05 01:15:32;;;;;;;;;;;10.80;99.90;;;;;;5073110;28;19912;-64
2022/10/05 01:18:02;;;;;;;;;;;11.00;99.90;;;;;;5073041;28;19912;-64
2022/10/05 01:20:38;;;;;;;;;;;11.10;99.90;;;;;;5073108;28;19932;-65
2022/10/05 01:23:17;;;;;;;;;;;11.20;99.90;;;;;;5073066;28;19920;-65
2022/10/05 01:26:02;;;;;;;;;;;11.30;99.90;;;;;;5076693;28;20329;-64
2022/10/05 01:28:39;;;;;;;;;;;11.40;99.90;;;;;;5076744;28;20374;-64
2022/10/05 01:31:20;;;;;;;;;;;11.50;99.90;;;;;;5076798;28;19911;-64
2022/10/05 01:33:51;;;;;;;;;;;11.60;99.90;;;;;;5076657;28;19908;-64
2022/10/05 01:36:36;;;;;;;;;;;11.60;99.90;;;;;;5076600;28;20000;-64
2022/10/05 01:39:07;;;;;;;;;;;11.60;99.90;;;;;;5061560;28;19921;-64
2022/10/05 01:41:38;;;;;;;;;;;11.70;99.90;;;;;;5076603;28;19913;-64
2022/10/05 01:44:23;;;;;;;;;;;11.60;99.90;;;;;;5076757;28;20358;-64
2022/10/05 01:49:57;;;;;;;;;;;11.60;99.90;;;;;;5071067;28;19919;-65
2022/10/05 01:52:30;;;;;;;;;;;11.50;99.90;;;;;;5070937;28;19913;-65
2022/10/05 01:55:09;;;;;;;;;;;11.60;99.90;;;;;;5070906;28;19912;-65
2022/10/05 01:57:54;;;;;;;;;;;11.50;99.90;;;;;;5070852;28;19909;-65
2022/10/05 02:00:20;;;;;;;;;;;11.60;99.90;;;;;;5070788;28;19908;-65
2022/10/05 02:03:05;;;;;;;;;;;11.60;99.90;;;;;;5071036;28;20007;-65
2022/10/05 02:05:34;;;;;;;;;;;11.60;99.90;;;;;;5070763;28;19932;-65
2022/10/05 02:08:00;;;;;;;;;;;11.60;99.90;;;;;;5070514;28;19919;-65
2022/10/05 02:10:31;;;;;;;;;;;11.60;99.90;;;;;;5070892;28;20390;-65
2022/10/05 02:13:01;;;;;;;;;;;11.50;99.90;;;;;;5070593;28;19908;-65
2022/10/05 02:15:31;;;;;;;;;;;11.50;99.90;;;;;;5070775;28;20359;-65
2022/10/05 02:18:00;;;;;;;;;;;11.50;99.90;;;;;;5070726;28;19913;-65
2022/10/05 02:20:27;;;;;;;;;;;11.60;99.90;;;;;;5070691;28;20371;-65
2022/10/05 02:22:54;;;;;;;;;;;11.70;99.90;;;;;;5070630;28;19916;-66
2022/10/05 02:25:23;;;;;;;;;;;11.80;99.90;;;;;;5070522;28;19908;-65
2022/10/05 02:27:55;;;;;;;;;;;11.80;99.90;;;;;;5070178;28;19912;-65
2022/10/05 02:30:21;;;;;;;;;;;11.80;99.90;;;;;;5070169;28;19951;-65
2022/10/05 02:32:50;;;;;;;;;;;11.80;99.90;;;;;;5070432;28;19952;-65
2022/10/05 02:35:17;;;;;;;;;;;11.90;99.90;;;;;;5070322;28;19913;-65
2022/10/05 02:38:02;;;;;;;;;;;12.00;99.90;;;;;;5070082;28;20007;-65
2022/10/05 02:40:43;;;;;;;;;;;12.00;99.90;;;;;;5070038;28;19919;-65
2022/10/05 02:43:28;;;;;;;;;;;12.00;99.90;;;;;;5070173;28;20318;-65
2022/10/05 02:46:05;;;;;;;;;;;12.10;99.90;;;;;;5069825;28;20286;-65
2022/10/05 02:48:50;;;;;;;;;;;12.20;99.90;;;;;;5081074;28;19943;-65
2022/10/05 02:51:21;;;;;;;;;;;12.30;99.90;;;;;;5089988;28;19908;-65
2022/10/05 02:54:07;;;;;;;;;;;12.30;99.90;;;;;;5090023;28;19908;-65
2022/10/05 02:59:31;;;;;;;;;;;12.30;99.90;;;;;;5071063;28;19919;-65
2022/10/05 03:02:17;;;;;;;;;;;12.30;99.90;;;;;;5070951;28;19920;-65
2022/10/05 03:05:02;;;;;;;;;;;12.20;99.90;;;;;;5070951;28;19981;-65
2022/10/05 03:07:48;;;;;;;;;;;12.20;99.90;;;;;;5070857;28;20003;-65
2022/10/05 03:10:25;;;;;;;;;;;12.10;99.90;;;;;;5070776;28;19912;-65
2022/10/05 03:13:11;;;;;;;;;;;12.10;99.90;;;;;;5071031;28;19909;-65
2022/10/05 03:15:56;;;;;;;;;;;12.10;99.90;;;;;;5070729;28;19908;-65
2022/10/05 03:18:38;;;;;;;;;;;12.00;99.90;;;;;;5070486;28;19912;-65
2022/10/05 03:21:11;;;;;;;;;;;12.00;99.90;;;;;;5070580;28;19913;-65
2022/10/05 03:26:30;;;;;;;;;;;12.10;99.90;;;;;;5071149;28;19912;-65
2022/10/05 03:29:05;;;;;;;;;;;12.10;99.90;;;;;;5070937;28;20024;-65
2022/10/05 03:31:50;;;;;;;;;;;12.10;99.90;;;;;;5071139;28;20425;-65
2022/10/05 03:34:20;;;;;;;;;;;12.10;99.90;;;;;;5071102;28;20421;-65
2022/10/05 03:36:57;;;;;;;;;;;12.10;99.90;;;;;;5070803;28;19962;-65
2022/10/05 03:39:29;;;;;;;;;;;12.10;99.90;;;;;;5070755;28;19909;-65
2022/10/05 03:42:02;;;;;;;;;;;12.10;99.90;;;;;;5070961;28;19909;-65
2022/10/05 03:44:34;;;;;;;;;;;12.10;99.90;;;;;;5070876;28;20374;-65
2022/10/05 03:47:12;;;;;;;;;;;12.10;99.90;;;;;;5070674;28;19943;-65
2022/10/05 03:49:46;;;;;;;;;;;12.20;99.90;;;;;;5070543;28;19951;-65
2022/10/05 03:52:15;;;;;;;;;;;12.10;99.90;;;;;;5070489;28;19909;-65
2022/10/05 03:54:58;;;;;;;;;;;12.10;99.90;;;;;;5070697;28;20326;-65
2022/10/05 03:57:27;;;;;;;;;;;12.20;99.90;;;;;;5070360;28;19916;-66
2022/10/05 04:00:12;;;;;;;;;;;12.20;99.90;;;;;;5070328;28;19912;-65
2022/10/05 04:02:42;;;;;;;;;;;12.20;99.90;;;;;;5070263;28;19908;-65
2022/10/05 04:07:50;;;;;;;;;;;12.20;99.90;;;;;;5091279;27;19912;-65
2022/10/05 04:10:20;;;;;;;;;;;12.20;99.90;;;;;;5091394;28;19916;-65
2022/10/05 04:12:48;;;;;;;;;;;12.20;99.90;;;;;;5091095;28;19909;-65
2022/10/05 04:15:17;;;;;;;;;;;12.30;99.90;;;;;;5091281;28;19931;-65
2022/10/05 04:17:44;;;;;;;;;;;12.30;99.90;;;;;;5091218;28;19915;-65
2022/10/05 04:20:29;;;;;;;;;;;12.30;99.90;;;;;;5091215;28;20294;-64
2022/10/05 04:23:00;;;;;;;;;;;12.40;99.90;;;;;;5091222;28;20464;-65
2022/10/05 04:25:33;;;;;;;;;;;12.60;99.90;;;;;;5091171;28;19908;-66
2022/10/05 04:28:10;;;;;;;;;;;12.40;99.90;;;;;;5090930;28;19957;-68
2022/10/05 04:30:38;;;;;;;;;;;12.50;99.90;;;;;;5090739;28;20371;-65
2022/10/05 04:33:07;;;;;;;;;;;12.50;99.90;;;;;;5091011;28;19915;-64
2022/10/05 04:35:39;;;;;;;;;;;12.50;99.90;;;;;;5090952;28;20405;-65
2022/10/05 04:38:16;;;;;;;;;;;12.40;99.90;;;;;;5090902;28;20281;-65
2022/10/05 04:40:57;;;;;;;;;;;12.30;99.90;;;;;;5090853;28;20005;-65
2022/10/05 04:43:31;;;;;;;;;;;12.40;99.90;;;;;;5090782;28;20344;-65
2022/10/05 04:46:17;;;;;;;;;;;12.30;99.90;;;;;;5090713;28;20302;-65
2022/10/05 04:48:51;;;;;;;;;;;12.20;99.90;;;;;;5090503;28;20386;-65
2022/10/05 04:51:28;;;;;;;;;;;12.20;99.90;;;;;;5090318;28;19963;-65
2022/10/05 04:53:57;;;;;;;;;;;12.20;99.90;;;;;;5090605;28;20325;-65
2022/10/05 04:56:35;;;;;;;;;;;12.10;99.90;;;;;;5090559;28;19909;-65
2022/10/05 05:02:03;;;;;;;;;;;12.00;99.90;;;;;;5071139;28;20414;-65
2022/10/05 05:04:48;;;;;;;;;;;12.00;99.90;;;;;;5071243;28;19917;-65
2022/10/05 05:07:22;;;;;;;;;;;11.80;99.90;;;;;;5070794;28;19915;-65
2022/10/05 05:10:00;;;;;;;;;;;11.70;99.90;;;;;;5071100;28;19970;-65
2022/10/05 05:12:36;;;;;;;;;;;11.80;99.90;;;;;;5071374;28;19916;-65
2022/10/05 05:15:22;;;;;;;;;;;11.80;99.90;;;;;;5071021;28;20371;-65
2022/10/05 05:20:54;;;;;;;;;;;11.80;99.90;;;;;;5071093;28;20379;-65
2022/10/05 05:23:34;;;;;;;;;;;11.70;99.90;;;;;;5070784;28;19912;-65
2022/10/05 05:26:15;;;;;;;;;;;11.60;99.90;;;;;;5086875;28;19912;-64
2022/10/05 05:28:46;;;;;;;;;;;11.70;99.90;;;;;;5071203;28;19909;-64
2022/10/05 05:31:18;;;;;;;;;;;11.70;99.90;;;;;;5071136;28;19909;-65
2022/10/05 05:34:03;;;;;;;;;;;11.80;99.90;;;;;;5071005;28;19915;-64
2022/10/05 05:36:34;;;;;;;;;;;11.80;99.90;;;;;;5069464;28;19913;-64
2022/10/05 05:39:10;;;;;;;;;;;11.90;99.90;;;;;;5077262;28;20355;-64
2022/10/05 05:41:38;;;;;;;;;;;11.90;99.90;;;;;;5069458;28;19920;-64
2022/10/05 05:44:11;;;;;;;;;;;12.10;99.90;;;;;;5070365;28;19912;-64
2022/10/05 05:46:38;;;;;;;;;;;12.10;99.90;;;;;;5070634;28;20364;-65
2022/10/05 05:49:14;;;;;;;;;;;12.20;99.90;;;;;;5070157;28;19962;-64
2022/10/05 05:51:42;;;;;;;;;;;12.30;99.90;;;;;;5070286;28;19948;-65
2022/10/05 05:56:59;;;;;;;;;;;12.40;99.90;;;;;;5070284;28;19919;-63
2022/10/05 05:59:36;;;;;;;;;;;12.40;99.90;;;;;;5060537;28;20384;-63
2022/10/05 06:02:08;;;;;;;;;;;12.50;99.90;;;;;;5056999;28;19919;-65
2022/10/05 06:04:40;;;;;;;;;;;12.60;99.90;;;;;;5066660;28;19920;-64
2022/10/05 06:07:05;;;;;;;;;;;12.60;99.90;;;;;;5067831;28;20003;-63
2022/10/05 06:09:43;;;;;;;;;;;12.70;99.90;;;;;;5060429;28;20525;-64
2022/10/05 06:12:11;;;;;;;;;;;12.80;99.90;;;;;;5056555;28;19913;-64
2022/10/05 06:14:44;;;;;;;;;;;12.80;99.90;;;;;;5061541;28;20391;-63
2022/10/05 06:17:18;;;;;;;;;;;12.90;99.90;;;;;;5058527;28;19912;-63
2022/10/05 06:19:45;;;;;;;;;;;12.90;99.90;;;;;;5063755;28;20286;-63
2022/10/05 06:22:30;;;;;;;;;;;13.00;99.90;;;;;;5089162;28;19920;-64
2022/10/05 06:25:03;;;;;;;;;;;13.00;99.90;;;;;;5082727;28;19920;-64
2022/10/05 06:27:48;;;;;;;;;;;13.10;99.90;;;;;;5076184;28;20000;-64
2022/10/05 06:30:15;;;;;;;;;;;13.20;99.90;;;;;;5066167;28;20333;-65
2022/10/05 06:32:51;;;;;;;;;;;13.20;99.90;;;;;;5069921;28;19917;-67
2022/10/05 06:35:23;;;;;;;;;;;13.30;99.90;;;;;;5068990;28;20003;-66
2022/10/05 06:37:56;;;;;;;;;;;13.30;99.90;;;;;;5066989;28;20346;-66
2022/10/05 06:40:28;;;;;;;;;;;13.40;99.90;;;;;;5068888;28;20398;-66
2022/10/05 06:43:13;;;;;;;;;;;13.40;99.90;;;;;;5081789;28;19908;-66
2022/10/05 06:45:47;;;;;;;;;;;13.50;99.90;;;;;;5075765;28;19919;-66
2022/10/05 06:48:24;;;;;;;;;;;13.60;99.90;;;;;;5068383;28;19927;-66
2022/10/05 06:50:58;;;;;;;;;;;13.60;99.90;;;;;;5049728;28;19932;-66
2022/10/05 06:53:30;;;;;;;;;;;13.70;99.90;;;;;;5068408;28;19948;-65
2022/10/05 06:56:15;;;;;;;;;;;13.70;99.90;;;;;;5074774;28;19932;-65
2022/10/05 06:58:59;;;;;;;;;;;13.70;99.90;;;;;;5085930;28;20366;-65
2022/10/05 07:01:34;;;;;;;;;;;13.70;99.90;;;;;;5083028;28;19965;-65
2022/10/05 07:04:20;;;;;;;;;;;13.70;99.90;;;;;;5089349;28;20006;-66
2022/10/05 07:06:51;;;;;;;;;;;13.80;99.90;;;;;;5078360;28;19912;-67
2022/10/05 07:09:24;;;;;;;;;;;13.80;99.90;;;;;;5075545;28;19982;-67
2022/10/05 07:11:57;;;;;;;;;;;13.90;99.90;;;;;;5073777;28;19912;-66
2022/10/05 07:14:42;;;;;;;;;;;13.90;99.90;;;;;;5057802;28;19986;-66
2022/10/05 07:17:27;;;;;;;;;;;14.00;99.90;;;;;;5074819;28;19952;-67
2022/10/05 07:19:59;;;;;;;;;;;14.10;99.90;;;;;;5068592;28;19909;-66
2022/10/05 07:22:34;;;;;;;;;;;14.20;99.90;;;;;;5074408;28;20001;-66
2022/10/05 07:25:17;;;;;;;;;;;14.20;99.90;;;;;;5073848;28;19919;-67
2022/10/05 07:28:03;;;;;;;;;;;14.30;99.90;;;;;;5061559;28;19913;-67
2022/10/05 07:30:30;;;;;;;;;;;14.40;99.90;;;;;;5063706;28;19938;-66
2022/10/05 07:33:00;;;;;;;;;;;14.50;99.90;;;;;;5056624;28;20298;-67
2022/10/05 07:38:10;;;;;;;;;;;14.60;99.90;;;;;;5089964;27;20287;-66
2022/10/05 07:43:20;;;;;;;;;;;14.80;99.90;;;;;;5106911;27;1876666;-66
2022/10/05 07:45:53;;;;;;;;;;;14.90;99.90;;;;;;5149058;27;20470;-66
2022/10/05 07:48:20;;;;;;;;;;;15.00;99.90;;;;;;5159564;27;19942;-65
2022/10/05 07:50:55;;;;;;;;;;;15.00;99.90;;;;;;5149002;27;20460;-66
2022/10/05 07:53:27;;;;;;;;;;;15.10;99.90;;;;;;5146571;27;19911;-66
2022/10/05 07:55:54;;;;;;;;;;;15.20;99.90;;;;;;5140501;27;19915;-66
2022/10/05 07:58:29;;;;;;;;;;;15.10;99.90;;;;;;5142297;27;20396;-65
2022/10/05 08:01:04;;;;;;;;;;;15.10;99.90;;;;;;5157284;27;20269;-66
2022/10/05 08:03:37;;;;;;;;;;;15.20;99.90;;;;;;5150352;27;19912;-66
2022/10/05 08:06:04;;;;;;;;;;;15.10;99.90;;;;;;5152006;27;19919;-66
2022/10/05 08:08:49;;;;;;;;;;;15.10;99.90;;;;;;5141389;27;19912;-66
2022/10/05 08:11:18;;;;;;;;;;;15.10;99.90;;;;;;5134608;27;19911;-65
2022/10/05 08:13:53;;;;;;;;;;;15.10;99.90;;;;;;5141781;27;19911;-66
2022/10/05 08:16:20;;;;;;;;;;;15.10;99.90;;;;;;5130734;28;19984;-66
2022/10/05 08:18:54;;;;;;;;;;;15.10;99.90;;;;;;5142154;27;20374;-66
2022/10/05 08:21:26;;;;;;;;;;;15.10;99.90;;;;;;5167942;27;19915;-66
2022/10/05 08:23:58;;;;;;;;;;;15.10;99.90;;;;;;5161726;27;19911;-66
2022/10/05 08:26:36;;;;;;;;;;;15.10;99.90;;;;;;5144140;27;19970;-66
2022/10/05 08:29:09;;;;;;;;;;;15.10;99.90;;;;;;5145235;27;20373;-67
2022/10/05 08:31:36;;;;;;;;;;;15.20;99.90;;;;;;5139731;27;19911;-67
2022/10/05 08:34:20;;;;;;;;;;;15.20;99.90;;;;;;5149465;27;19916;-66
2022/10/05 08:39:50;;;;;;;;;;;15.20;99.90;;;;;;5080691;27;19927;-67
2022/10/05 08:45:18;;;;;;;;;;;15.30;99.90;;;;;;5090693;27;19919;-66
2022/10/05 08:48:03;;;;;;;;;;;15.40;99.90;;;;;;5089519;28;19926;-66
2022/10/05 08:50:48;;;;;;;;;;;15.40;99.90;;;;;;5087937;28;19916;-67
2022/10/05 08:53:34;;;;;;;;;;;15.50;99.90;;;;;;5087492;28;19919;-67
2022/10/05 08:56:06;;;;;;;;;;;15.50;99.90;;;;;;5082291;28;19916;-67
2022/10/05 08:58:52;;;;;;;;;;;15.60;99.90;;;;;;5087853;28;19966;-67
2022/10/05 09:01:21;;;;;;;;;;;15.60;99.90;;;;;;5088030;28;19920;-69
2022/10/05 09:03:59;;;;;;;;;;;15.70;99.90;;;;;;5072847;28;19917;-67
2022/10/05 09:06:32;;;;;;;;;;;15.70;99.90;;;;;;5086529;28;20007;-68
2022/10/05 09:09:05;;;;;;;;;;;15.80;99.90;;;;;;5090401;28;19948;-67
2022/10/05 09:11:41;;;;;;;;;;;15.80;99.90;;;;;;5089701;28;19973;-68
2022/10/05 09:14:26;;;;;;;;;;;15.90;99.90;;;;;;5088312;28;19916;-67
2022/10/05 09:17:12;;;;;;;;;;;16.10;99.90;;;;;;5090904;28;19919;-67
2022/10/05 09:22:43;;;;;;;;;;;16.20;99.90;;;;;;5084848;27;19923;-66
2022/10/05 09:25:28;;;;;;;;;;;16.20;99.90;;;;;;5061266;28;19913;-66
2022/10/05 09:27:56;;;;;;;;;;;16.20;99.90;;;;;;5070171;28;20371;-66
2022/10/05 09:30:34;;;;;;;;;;;16.30;99.90;;;;;;5082604;28;20436;-66
2022/10/05 09:33:13;;;;;;;;;;;16.40;99.90;;;;;;5074076;28;19915;-67
2022/10/05 09:35:56;;;;;;;;;;;16.30;99.90;;;;;;5067566;28;20321;-66
2022/10/05 09:38:31;;;;;;;;;;;16.30;99.90;;;;;;5081742;28;19959;-66
2022/10/05 09:41:11;;;;;;;;;;;16.40;99.90;;;;;;5090688;28;19956;-66
2022/10/05 09:43:46;;;;;;;;;;;16.40;99.90;;;;;;5068678;28;19920;-65
2022/10/05 09:46:24;;;;;;;;;;;16.50;99.90;;;;;;5072177;28;19966;-66
2022/10/05 09:48:55;;;;;;;;;;;16.60;99.90;;;;;;5072904;28;19927;-65
2022/10/05 09:51:33;;;;;;;;;;;16.60;99.90;;;;;;5071387;28;19920;-66
2022/10/05 09:54:07;;;;;;;;;;;16.70;99.90;;;;;;5069890;28;19998;-66
2022/10/05 09:56:52;;;;;;;;;;;16.70;99.90;;;;;;5058336;28;19959;-66
2022/10/05 09:59:29;;;;;;;;;;;16.80;99.90;;;;;;5055449;28;19913;-66
2022/10/05 10:05:04;;;;;;;;;;;17.00;99.90;;;;;;5056066;28;19924;-64
2022/10/05 10:07:34;;;;;;;;;;;17.00;99.90;;;;;;5057027;28;20375;-66
2022/10/05 10:10:06;;;;;;;;;;;17.10;99.90;;;;;;5055081;28;20311;-66
2022/10/05 10:12:43;;;;;;;;;;;17.20;99.90;;;;;;5050315;28;19913;-66
2022/10/05 10:15:22;;;;;;;;;;;17.30;99.90;;;;;;5049411;28;19935;-66
2022/10/05 10:18:00;;;;;;;;;;;17.20;99.90;;;;;;5053476;28;19970;-66
2022/10/05 10:20:35;;;;;;;;;;;17.30;99.90;;;;;;5070148;28;19924;-66
2022/10/05 10:23:20;;;;;;;;;;;17.40;99.90;;;;;;5057703;28;19927;-67
2022/10/05 10:26:06;;;;;;;;;;;17.40;99.90;;;;;;5057020;28;19920;-67
2022/10/05 10:28:51;;;;;;;;;;;17.50;99.90;;;;;;5049544;28;19979;-67
2022/10/05 10:31:37;;;;;;;;;;;17.60;99.90;;;;;;5048659;28;20008;-67
2022/10/05 10:34:22;;;;;;;;;;;17.60;99.90;;;;;;5048544;28;19921;-68
2022/10/05 10:37:00;;;;;;;;;;;17.50;99.90;;;;;;5048473;28;20371;-68
2022/10/05 10:39:45;;;;;;;;;;;17.60;99.90;;;;;;5049978;28;19960;-67
2022/10/05 10:42:23;;;;;;;;;;;17.70;99.90;;;;;;5049578;28;19948;-67
2022/10/05 10:45:09;;;;;;;;;;;17.70;99.90;;;;;;5049745;28;19919;-67
2022/10/05 10:47:42;;;;;;;;;;;17.70;99.90;;;;;;5047235;28;19959;-66
2022/10/05 10:50:28;;;;;;;;;;;17.80;99.90;;;;;;5048580;28;19940;-67
2022/10/05 10:53:13;;;;;;;;;;;17.80;99.90;;;;;;5049603;28;19913;-67
2022/10/05 10:55:45;;;;;;;;;;;17.80;99.90;;;;;;5049625;28;19960;-67
2022/10/05 10:58:25;;;;;;;;;;;17.80;99.90;;;;;;5048072;28;19917;-67
2022/10/05 11:01:00;;;;;;;;;;;17.70;99.90;;;;;;5042234;28;19917;-67
2022/10/05 11:03:46;;;;;;;;;;;17.70;99.90;;;;;;5058732;28;19920;-68
2022/10/05 11:06:24;;;;;;;;;;;17.60;99.90;;;;;;5055568;28;19913;-68
2022/10/05 11:08:59;;;;;;;;;;;17.60;99.90;;;;;;5036990;28;19920;-68
2022/10/05 11:11:37;;;;;;;;;;;17.70;99.90;;;;;;5053202;28;19913;-69
2022/10/05 11:14:20;;;;;;;;;;;17.70;99.90;;;;;;5046550;28;19917;-68
2022/10/05 11:16:56;;;;;;;;;;;17.60;99.90;;;;;;5034677;28;20257;-69
2022/10/05 11:19:34;;;;;;;;;;;17.80;99.90;;;;;;5039043;28;19917;-68
2022/10/05 11:22:19;;;;;;;;;;;17.80;99.90;;;;;;5021661;28;20388;-69
2022/10/05 11:24:59;;;;;;;;;;;17.90;99.90;;;;;;5028620;28;20392;-69
2022/10/05 11:27:44;;;;;;;;;;;17.80;99.90;;;;;;5034499;28;19915;-68
2022/10/05 11:30:16;;;;;;;;;;;17.90;99.90;;;;;;5035729;28;19913;-68
2022/10/05 11:33:01;;;;;;;;;;;18.10;99.90;;;;;;5034260;28;20003;-67
2022/10/05 11:38:39;;;;;;;;;;;18.20;99.90;;;;;;5098638;27;19998;-68
2022/10/05 11:41:23;;;;;;;;;;;18.20;99.90;;;;;;5110981;28;19912;-68
2022/10/05 11:46:33;;;;;;;;;;;18.30;99.90;;;;;;5090566;27;19917;-68
2022/10/05 11:49:13;;;;;;;;;;;18.40;99.90;;;;;;5071759;28;20290;-67
2022/10/05 11:51:43;;;;;;;;;;;18.40;99.90;;;;;;5085372;28;19958;-68
2022/10/05 11:54:16;;;;;;;;;;;18.40;99.90;;;;;;5090851;28;19908;-66
2022/10/05 11:57:01;;;;;;;;;;;18.60;99.90;;;;;;5090727;28;20390;-67
2022/10/05 11:59:33;;;;;;;;;;;18.60;99.90;;;;;;5101909;28;19934;-67
2022/10/05 12:02:18;;;;;;;;;;;18.80;99.90;;;;;;5111037;28;19912;-67
2022/10/05 12:04:50;;;;;;;;;;;18.90;99.90;;;;;;5100581;28;19917;-67
2022/10/05 12:07:35;;;;;;;;;;;18.90;99.90;;;;;;5079263;28;19919;-67
2022/10/05 12:10:13;;;;;;;;;;;19.10;99.90;;;;;;5075629;28;19912;-67
2022/10/05 12:12:47;;;;;;;;;;;19.20;99.90;;;;;;5075189;28;19958;-67
2022/10/05 12:15:33;;;;;;;;;;;19.20;99.90;;;;;;5087462;28;19935;-66
2022/10/05 12:18:07;;;;;;;;;;;19.00;99.90;;;;;;5080287;28;20294;-67
2022/10/05 12:20:45;;;;;;;;;;;19.10;99.90;;;;;;5089523;28;20452;-67
2022/10/05 12:23:18;;;;;;;;;;;19.10;99.90;;;;;;5089718;28;19919;-66
2022/10/05 12:25:47;;;;;;;;;;;19.20;99.90;;;;;;5075279;28;20362;-67
2022/10/05 12:28:16;;;;;;;;;;;19.10;99.90;;;;;;5086871;28;19966;-67
2022/10/05 12:31:01;;;;;;;;;;;19.10;99.90;;;;;;5115926;28;19917;-66
2022/10/05 12:33:47;;;;;;;;;;;19.20;99.90;;;;;;5086662;28;19963;-67
2022/10/05 12:36:16;;;;;;;;;;;19.40;99.90;;;;;;5087701;28;19962;-67
2022/10/05 12:38:45;;;;;;;;;;;19.20;99.90;;;;;;5089495;28;20061;-67
2022/10/05 12:41:30;;;;;;;;;;;19.50;99.90;;;;;;5087516;28;20304;-67
2022/10/05 12:44:03;;;;;;;;;;;19.50;99.90;;;;;;5072417;28;19920;-67
2022/10/05 12:46:48;;;;;;;;;;;19.40;99.90;;;;;;5104833;28;19943;-67
2022/10/05 12:49:33;;;;;;;;;;;19.40;99.90;;;;;;5109415;28;19919;-67
2022/10/05 12:52:00;;;;;;;;;;;19.50;99.90;;;;;;5120174;28;19918;-67
2022/10/05 12:54:33;;;;;;;;;;;19.50;99.90;;;;;;5112748;28;19951;-67
2022/10/05 12:57:04;;;;;;;;;;;19.50;99.90;;;;;;5100846;28;20378;-66
2022/10/05 12:59:49;;;;;;;;;;;19.50;99.90;;;;;;5095848;28;20282;-67
2022/10/05 13:02:35;;;;;;;;;;;19.60;99.90;;;;;;5096146;28;19919;-67
2022/10/05 13:05:12;;;;;;;;;;;19.70;99.90;;;;;;5092875;28;20426;-67
2022/10/05 13:07:58;;;;;;;;;;;19.50;99.90;;;;;;5089554;28;19912;-67
2022/10/05 13:10:43;;;;;;;;;;;19.40;99.90;;;;;;5095288;28;19999;-66
2022/10/05 13:13:29;;;;;;;;;;;19.70;99.90;;;;;;5095462;28;19915;-66
2022/10/05 13:18:57;;;;;;;;;;;20.10;99.90;;;;;;5070363;28;20294;-67
2022/10/05 13:21:43;;;;;;;;;;;20.20;99.90;;;;;;5067282;28;19955;-67
2022/10/05 13:24:13;;;;;;;;;;;20.00;99.90;;;;;;5069740;28;19917;-66
2022/10/05 13:26:41;;;;;;;;;;;19.80;99.90;;;;;;5067324;28;19952;-67
2022/10/05 13:29:26;;;;;;;;;;;19.90;99.90;;;;;;5069886;28;19913;-67
2022/10/05 13:31:54;;;;;;;;;;;19.80;99.90;;;;;;5069145;28;19909;-67
2022/10/05 13:34:39;;;;;;;;;;;20.00;99.90;;;;;;5070428;28;19908;-68
2022/10/05 13:37:25;;;;;;;;;;;20.00;99.90;;;;;;5065626;28;19917;-67
2022/10/05 13:40:04;;;;;;;;;;;20.00;99.90;;;;;;5065018;28;19913;-67
2022/10/05 13:42:33;;;;;;;;;;;20.00;99.90;;;;;;5066467;28;19920;-67
2022/10/05 13:45:02;;;;;;;;;;;20.10;99.90;;;;;;5067830;28;19917;-67
2022/10/05 13:47:37;;;;;;;;;;;20.10;99.90;;;;;;5063183;28;19917;-67
2022/10/05 13:50:13;;;;;;;;;;;20.20;99.90;;;;;;5064203;28;19935;-67
2022/10/05 13:52:49;;;;;;;;;;;20.30;99.90;;;;;;5056681;28;19917;-67
2022/10/05 13:55:35;;;;;;;;;;;20.50;99.90;;;;;;5058880;28;19913;-67
2022/10/05 13:58:06;;;;;;;;;;;20.50;99.90;;;;;;5052567;28;19968;-67
2022/10/05 14:00:39;;;;;;;;;;;20.60;99.90;;;;;;5061572;28;19912;-66
2022/10/05 14:03:21;;;;;;;;;;;20.60;99.90;;;;;;5072740;28;19913;-68
2022/10/05 14:05:56;;;;;;;;;;;20.80;99.90;;;;;;5056535;28;19920;-68
2022/10/05 14:08:25;;;;;;;;;;;20.70;99.90;;;;;;5060656;28;20383;-67
2022/10/05 14:10:52;;;;;;;;;;;20.70;99.90;;;;;;5078555;28;19968;-67
2022/10/05 14:13:30;;;;;;;;;;;20.70;99.90;;;;;;5053691;28;20094;-68
2022/10/05 14:15:58;;;;;;;;;;;20.80;99.90;;;;;;5048020;28;19931;-67
2022/10/05 14:18:26;;;;;;;;;;;20.90;99.90;;;;;;5059417;28;19920;-67
2022/10/05 14:21:01;;;;;;;;;;;21.00;99.90;;;;;;5057285;28;19913;-69
2022/10/05 14:23:27;;;;;;;;;;;21.00;99.90;;;;;;5070921;28;20013;-68
2022/10/05 14:25:53;;;;;;;;;;;20.90;99.90;;;;;;5061054;28;19964;-69
2022/10/05 14:28:22;;;;;;;;;;;21.00;99.90;;;;;;5063799;28;19924;-68
2022/10/05 14:30:57;;;;;;;;;;;20.90;99.90;;;;;;5054648;28;20483;-68
2022/10/05 14:33:24;;;;;;;;;;;21.00;99.90;;;;;;5054326;28;19909;-68
2022/10/05 14:35:51;;;;;;;;;;;21.10;99.90;;;;;;5054036;28;20375;-68
2022/10/05 14:38:25;;;;;;;;;;;21.10;99.90;;;;;;5054170;28;20310;-68
2022/10/05 14:41:10;;;;;;;;;;;21.10;99.90;;;;;;5054318;28;20433;-68
2022/10/05 14:43:36;;;;;;;;;;;21.10;99.90;;;;;;5054572;28;20372;-67
2022/10/05 14:49:15;;;;;;;;;;;21.20;99.90;;;;;;5071137;28;19919;-69
2022/10/05 14:51:41;;;;;;;;;;;21.20;99.90;;;;;;5070914;28;19920;-68
2022/10/05 14:54:24;;;;;;;;;;;21.20;99.90;;;;;;5071188;28;19909;-69
2022/10/05 14:57:04;;;;;;;;;;;21.10;99.90;;;;;;5071182;28;19909;-68
2022/10/05 14:59:38;;;;;;;;;;;21.20;99.90;;;;;;5071035;28;20376;-69
2022/10/05 15:02:23;;;;;;;;;;;21.10;99.90;;;;;;5070685;28;19909;-70
2022/10/05 15:04:59;;;;;;;;;;;21.00;99.90;;;;;;5070765;28;19909;-68
2022/10/05 15:07:31;;;;;;;;;;;21.00;99.90;;;;;;5070908;28;20012;-68
2022/10/05 15:10:17;;;;;;;;;;;21.00;99.90;;;;;;5070639;28;19995;-69
2022/10/05 15:12:47;;;;;;;;;;;20.90;99.90;;;;;;5070453;28;19912;-68
2022/10/05 15:15:25;;;;;;;;;;;20.80;99.90;;;;;;5069205;28;19908;-68
2022/10/05 15:17:57;;;;;;;;;;;20.90;99.90;;;;;;5070629;28;20303;-68
2022/10/05 15:20:27;;;;;;;;;;;20.90;99.90;;;;;;5070392;28;19908;-68
2022/10/05 15:22:59;;;;;;;;;;;20.80;99.90;;;;;;5070606;28;20447;-68
2022/10/05 15:25:35;;;;;;;;;;;20.80;99.90;;;;;;5070274;28;20003;-69
2022/10/05 15:28:21;;;;;;;;;;;20.80;99.90;;;;;;5070119;28;19913;-68
2022/10/05 15:30:51;;;;;;;;;;;20.80;99.90;;;;;;5070085;28;20061;-68
2022/10/05 15:33:36;;;;;;;;;;;20.80;99.90;;;;;;5070128;28;19913;-68
2022/10/05 15:36:22;;;;;;;;;;;20.70;99.90;;;;;;5070022;28;19909;-68
2022/10/05 15:39:07;;;;;;;;;;;20.70;99.90;;;;;;5069950;28;19916;-68
2022/10/05 15:41:54;;;;;;;;;;;20.60;99.90;;;;;;5069864;28;20380;-68
2022/10/05 15:44:25;;;;;;;;;;;20.50;99.90;;;;;;5069735;28;19916;-69
2022/10/05 15:46:55;;;;;;;;;;;20.40;99.90;;;;;;5073033;28;20394;-68
2022/10/05 15:49:26;;;;;;;;;;;20.30;99.90;;;;;;5071961;28;19908;-68
2022/10/05 15:52:03;;;;;;;;;;;20.20;99.90;;;;;;5090014;28;19912;-68
2022/10/05 15:54:43;;;;;;;;;;;20.20;99.90;;;;;;5090102;28;19931;-68
2022/10/05 15:57:12;;;;;;;;;;;20.10;99.90;;;;;;5089751;28;20401;-69